sensor_id;sensor_type;location;lat;lon;timestamp;P1;durP1;ratioP1;P2;durP2;ratioP2
12356;SDS011;6243;51.244;6.774;2024-02-26T00:00:56;1.73;;;1.03;;
12356;SDS011;6243;51.244;6.774;2024-02-26T00:03:21;1.70;;;1.00;;
12356;SDS011;6243;51.244;6.774;2024-02-26T00:05:47;1.50;;;1.10;;
12356;SDS011;6243;51.244;6.774;2024-02-26T00:08:12;1.30;;;1.20;;
12356;SDS011;6243;51.244;6.774;2024-02-26T00:10:39;1.43;;;1.10;;
12356;SDS011;6243;51.244;6.774;2024-02-26T00:13:05;1.30;;;1.00;;
12356;SDS011;6243;51.244;6.774;2024-02-26T00:15:30;1.57;;;1.10;;
12356;SDS011;6243;51.244;6.774;2024-02-26T00:17:56;1.00;;;0.90;;
12356;SDS011;6243;51.244;6.774;2024-02-26T00:20:21;0.97;;;0.93;;
12356;SDS011;6243;51.244;6.774;2024-02-26T00:22:47;1.23;;;1.10;;
12356;SDS011;6243;51.244;6.774;2024-02-26T00:25:12;1.60;;;1.20;;
12356;SDS011;6243;51.244;6.774;2024-02-26T00:27:39;1.10;;;1.00;;
12356;SDS011;6243;51.244;6.774;2024-02-26T00:30:05;0.90;;;0.90;;
12356;SDS011;6243;51.244;6.774;2024-02-26T00:32:31;1.73;;;1.47;;
12356;SDS011;6243;51.244;6.774;2024-02-26T00:34:57;1.13;;;1.03;;
12356;SDS011;6243;51.244;6.774;2024-02-26T00:37:22;1.40;;;1.23;;
12356;SDS011;6243;51.244;6.774;2024-02-26T00:39:48;1.47;;;1.17;;
12356;SDS011;6243;51.244;6.774;2024-02-26T00:42:13;1.00;;;1.00;;
12356;SDS011;6243;51.244;6.774;2024-02-26T00:44:41;1.37;;;1.27;;
12356;SDS011;6243;51.244;6.774;2024-02-26T00:47:06;1.07;;;0.90;;
12356;SDS011;6243;51.244;6.774;2024-02-26T00:49:32;1.20;;;1.10;;
12356;SDS011;6243;51.244;6.774;2024-02-26T00:51:58;1.50;;;1.03;;
12356;SDS011;6243;51.244;6.774;2024-02-26T00:54:23;1.03;;;1.03;;
12356;SDS011;6243;51.244;6.774;2024-02-26T00:56:49;1.77;;;1.13;;
12356;SDS011;6243;51.244;6.774;2024-02-26T00:59:14;1.27;;;1.17;;
12356;SDS011;6243;51.244;6.774;2024-02-26T01:01:41;1.20;;;1.10;;
12356;SDS011;6243;51.244;6.774;2024-02-26T01:04:06;0.90;;;0.90;;
12356;SDS011;6243;51.244;6.774;2024-02-26T01:06:32;1.37;;;1.10;;
12356;SDS011;6243;51.244;6.774;2024-02-26T01:08:57;1.17;;;1.00;;
12356;SDS011;6243;51.244;6.774;2024-02-26T01:11:23;1.30;;;1.00;;
12356;SDS011;6243;51.244;6.774;2024-02-26T01:13:49;1.57;;;1.00;;
12356;SDS011;6243;51.244;6.774;2024-02-26T01:16:14;1.20;;;1.10;;
12356;SDS011;6243;51.244;6.774;2024-02-26T01:18:41;2.13;;;1.03;;
12356;SDS011;6243;51.244;6.774;2024-02-26T01:21:07;1.60;;;1.13;;
12356;SDS011;6243;51.244;6.774;2024-02-26T01:23:32;1.30;;;1.20;;
12356;SDS011;6243;51.244;6.774;2024-02-26T01:25:58;1.20;;;1.10;;
12356;SDS011;6243;51.244;6.774;2024-02-26T01:28:23;0.90;;;0.90;;
12356;SDS011;6243;51.244;6.774;2024-02-26T01:30:49;1.73;;;1.13;;
12356;SDS011;6243;51.244;6.774;2024-02-26T01:33:14;1.33;;;1.17;;
12356;SDS011;6243;51.244;6.774;2024-02-26T01:35:41;1.10;;;0.97;;
12356;SDS011;6243;51.244;6.774;2024-02-26T01:38:07;1.10;;;1.00;;
12356;SDS011;6243;51.244;6.774;2024-02-26T01:40:32;1.63;;;1.10;;
12356;SDS011;6243;51.244;6.774;2024-02-26T01:42:58;1.20;;;1.10;;
12356;SDS011;6243;51.244;6.774;2024-02-26T01:45:24;2.50;;;1.10;;
12356;SDS011;6243;51.244;6.774;2024-02-26T01:47:50;1.03;;;0.93;;
12356;SDS011;6243;51.244;6.774;2024-02-26T01:50:16;1.33;;;1.00;;
12356;SDS011;6243;51.244;6.774;2024-02-26T01:52:43;1.00;;;0.90;;
12356;SDS011;6243;51.244;6.774;2024-02-26T01:55:10;2.50;;;1.23;;
12356;SDS011;6243;51.244;6.774;2024-02-26T01:57:35;1.30;;;1.00;;
12356;SDS011;6243;51.244;6.774;2024-02-26T02:00:01;1.67;;;1.30;;
12356;SDS011;6243;51.244;6.774;2024-02-26T02:02:27;2.73;;;1.00;;
12356;SDS011;6243;51.244;6.774;2024-02-26T02:04:52;1.87;;;0.90;;
12356;SDS011;6243;51.244;6.774;2024-02-26T02:07:18;2.47;;;1.00;;
12356;SDS011;6243;51.244;6.774;2024-02-26T02:09:47;1.10;;;1.00;;
12356;SDS011;6243;51.244;6.774;2024-02-26T02:12:13;1.30;;;1.20;;
12356;SDS011;6243;51.244;6.774;2024-02-26T02:14:39;1.07;;;0.97;;
12356;SDS011;6243;51.244;6.774;2024-02-26T02:17:04;1.40;;;1.20;;
12356;SDS011;6243;51.244;6.774;2024-02-26T02:19:30;1.23;;;1.00;;
12356;SDS011;6243;51.244;6.774;2024-02-26T02:21:57;1.77;;;1.30;;
12356;SDS011;6243;51.244;6.774;2024-02-26T02:24:22;1.20;;;1.10;;
12356;SDS011;6243;51.244;6.774;2024-02-26T02:26:48;1.60;;;1.23;;
12356;SDS011;6243;51.244;6.774;2024-02-26T02:29:13;1.50;;;1.40;;
12356;SDS011;6243;51.244;6.774;2024-02-26T02:31:39;2.13;;;1.20;;
12356;SDS011;6243;51.244;6.774;2024-02-26T02:34:06;2.23;;;1.30;;
12356;SDS011;6243;51.244;6.774;2024-02-26T02:36:32;1.27;;;1.13;;
12356;SDS011;6243;51.244;6.774;2024-02-26T02:38:59;3.30;;;1.90;;
12356;SDS011;6243;51.244;6.774;2024-02-26T02:41:24;2.43;;;2.00;;
12356;SDS011;6243;51.244;6.774;2024-02-26T02:43:50;3.33;;;1.80;;
12356;SDS011;6243;51.244;6.774;2024-02-26T02:46:15;1.40;;;1.30;;
12356;SDS011;6243;51.244;6.774;2024-02-26T02:48:41;1.43;;;1.30;;
12356;SDS011;6243;51.244;6.774;2024-02-26T02:51:07;1.50;;;1.40;;
12356;SDS011;6243;51.244;6.774;2024-02-26T02:53:32;2.50;;;1.67;;
12356;SDS011;6243;51.244;6.774;2024-02-26T02:55:59;2.20;;;1.40;;
12356;SDS011;6243;51.244;6.774;2024-02-26T02:58:25;1.63;;;1.40;;
12356;SDS011;6243;51.244;6.774;2024-02-26T03:00:50;1.67;;;1.17;;
12356;SDS011;6243;51.244;6.774;2024-02-26T03:03:16;1.83;;;1.40;;
12356;SDS011;6243;51.244;6.774;2024-02-26T03:05:41;1.53;;;1.43;;
12356;SDS011;6243;51.244;6.774;2024-02-26T03:08:07;1.37;;;1.27;;
12356;SDS011;6243;51.244;6.774;2024-02-26T03:10:32;2.87;;;1.50;;
12356;SDS011;6243;51.244;6.774;2024-02-26T03:12:59;1.53;;;1.23;;
12356;SDS011;6243;51.244;6.774;2024-02-26T03:15:24;1.50;;;1.40;;
12356;SDS011;6243;51.244;6.774;2024-02-26T03:17:50;2.30;;;1.40;;
12356;SDS011;6243;51.244;6.774;2024-02-26T03:20:15;1.80;;;1.47;;
12356;SDS011;6243;51.244;6.774;2024-02-26T03:22:41;2.30;;;1.60;;
12356;SDS011;6243;51.244;6.774;2024-02-26T03:25:07;1.73;;;1.43;;
12356;SDS011;6243;51.244;6.774;2024-02-26T03:27:33;2.60;;;1.97;;
12356;SDS011;6243;51.244;6.774;2024-02-26T03:30:00;1.60;;;1.40;;
12356;SDS011;6243;51.244;6.774;2024-02-26T03:32:25;2.33;;;1.40;;
12356;SDS011;6243;51.244;6.774;2024-02-26T03:34:51;1.80;;;1.37;;
12356;SDS011;6243;51.244;6.774;2024-02-26T03:37:16;1.60;;;1.50;;
12356;SDS011;6243;51.244;6.774;2024-02-26T03:39:42;1.43;;;1.30;;
12356;SDS011;6243;51.244;6.774;2024-02-26T03:42:07;1.97;;;1.70;;
12356;SDS011;6243;51.244;6.774;2024-02-26T03:44:33;1.60;;;1.50;;
12356;SDS011;6243;51.244;6.774;2024-02-26T03:47:00;2.93;;;1.33;;
12356;SDS011;6243;51.244;6.774;2024-02-26T03:49:25;1.30;;;1.20;;
12356;SDS011;6243;51.244;6.774;2024-02-26T03:51:50;2.47;;;1.70;;
12356;SDS011;6243;51.244;6.774;2024-02-26T03:54:16;2.43;;;1.20;;
12356;SDS011;6243;51.244;6.774;2024-02-26T03:56:42;1.87;;;1.37;;
12356;SDS011;6243;51.244;6.774;2024-02-26T03:59:07;1.43;;;1.30;;
12356;SDS011;6243;51.244;6.774;2024-02-26T04:01:33;1.83;;;1.53;;
12356;SDS011;6243;51.244;6.774;2024-02-26T04:04:00;3.20;;;1.50;;
12356;SDS011;6243;51.244;6.774;2024-02-26T04:06:25;2.07;;;1.30;;
12356;SDS011;6243;51.244;6.774;2024-02-26T04:08:51;1.40;;;1.30;;
12356;SDS011;6243;51.244;6.774;2024-02-26T04:11:16;1.60;;;1.47;;
12356;SDS011;6243;51.244;6.774;2024-02-26T04:13:42;1.90;;;1.80;;
12356;SDS011;6243;51.244;6.774;2024-02-26T04:16:07;1.93;;;1.40;;
12356;SDS011;6243;51.244;6.774;2024-02-26T04:18:33;1.30;;;1.20;;
12356;SDS011;6243;51.244;6.774;2024-02-26T04:20:59;1.47;;;1.37;;
12356;SDS011;6243;51.244;6.774;2024-02-26T04:23:25;1.50;;;1.40;;
12356;SDS011;6243;51.244;6.774;2024-02-26T04:25:50;1.87;;;1.30;;
12356;SDS011;6243;51.244;6.774;2024-02-26T04:28:16;2.37;;;1.43;;
12356;SDS011;6243;51.244;6.774;2024-02-26T04:30:41;1.53;;;1.40;;
12356;SDS011;6243;51.244;6.774;2024-02-26T04:33:07;2.00;;;1.50;;
12356;SDS011;6243;51.244;6.774;2024-02-26T04:35:33;3.53;;;1.73;;
12356;SDS011;6243;51.244;6.774;2024-02-26T04:37:59;2.07;;;1.87;;
12356;SDS011;6243;51.244;6.774;2024-02-26T04:40:25;3.60;;;2.03;;
12356;SDS011;6243;51.244;6.774;2024-02-26T04:42:50;1.80;;;1.60;;
12356;SDS011;6243;51.244;6.774;2024-02-26T04:45:16;2.70;;;1.90;;
12356;SDS011;6243;51.244;6.774;2024-02-26T04:47:41;1.93;;;1.70;;
12356;SDS011;6243;51.244;6.774;2024-02-26T04:50:07;1.87;;;1.77;;
12356;SDS011;6243;51.244;6.774;2024-02-26T04:52:33;2.40;;;1.90;;
12356;SDS011;6243;51.244;6.774;2024-02-26T04:55:00;1.77;;;1.67;;
12356;SDS011;6243;51.244;6.774;2024-02-26T04:57:25;2.80;;;2.10;;
12356;SDS011;6243;51.244;6.774;2024-02-26T04:59:51;2.40;;;2.20;;
12356;SDS011;6243;51.244;6.774;2024-02-26T05:02:16;2.30;;;1.80;;
12356;SDS011;6243;51.244;6.774;2024-02-26T05:04:42;1.70;;;1.60;;
12356;SDS011;6243;51.244;6.774;2024-02-26T05:07:07;3.33;;;1.90;;
12356;SDS011;6243;51.244;6.774;2024-02-26T05:09:33;2.83;;;2.00;;
12356;SDS011;6243;51.244;6.774;2024-02-26T05:12:01;2.27;;;2.07;;
12356;SDS011;6243;51.244;6.774;2024-02-26T05:14:26;2.30;;;2.10;;
12356;SDS011;6243;51.244;6.774;2024-02-26T05:16:52;2.20;;;2.10;;
12356;SDS011;6243;51.244;6.774;2024-02-26T05:19:17;2.70;;;1.87;;
12356;SDS011;6243;51.244;6.774;2024-02-26T05:21:43;2.23;;;2.00;;
12356;SDS011;6243;51.244;6.774;2024-02-26T05:24:08;2.80;;;2.17;;
12356;SDS011;6243;51.244;6.774;2024-02-26T05:26:33;2.00;;;1.90;;
12356;SDS011;6243;51.244;6.774;2024-02-26T05:29:00;3.27;;;2.03;;
12356;SDS011;6243;51.244;6.774;2024-02-26T05:31:26;2.20;;;2.00;;
12356;SDS011;6243;51.244;6.774;2024-02-26T05:33:52;2.67;;;2.20;;
12356;SDS011;6243;51.244;6.774;2024-02-26T05:36:18;2.53;;;2.20;;
12356;SDS011;6243;51.244;6.774;2024-02-26T05:38:44;3.27;;;2.40;;
12356;SDS011;6243;51.244;6.774;2024-02-26T05:41:10;4.13;;;2.73;;
12356;SDS011;6243;51.244;6.774;2024-02-26T05:43:35;2.63;;;2.30;;
12356;SDS011;6243;51.244;6.774;2024-02-26T05:46:02;4.10;;;2.23;;
12356;SDS011;6243;51.244;6.774;2024-02-26T05:48:28;2.37;;;2.17;;
12356;SDS011;6243;51.244;6.774;2024-02-26T05:50:53;3.40;;;2.50;;
12356;SDS011;6243;51.244;6.774;2024-02-26T05:53:19;3.43;;;2.70;;
12356;SDS011;6243;51.244;6.774;2024-02-26T05:55:44;3.10;;;2.37;;
12356;SDS011;6243;51.244;6.774;2024-02-26T05:58:10;2.57;;;2.37;;
12356;SDS011;6243;51.244;6.774;2024-02-26T06:00:35;3.60;;;2.17;;
12356;SDS011;6243;51.244;6.774;2024-02-26T06:03:02;3.17;;;2.30;;
12356;SDS011;6243;51.244;6.774;2024-02-26T06:05:27;2.27;;;2.07;;
12356;SDS011;6243;51.244;6.774;2024-02-26T06:07:53;3.57;;;2.80;;
12356;SDS011;6243;51.244;6.774;2024-02-26T06:10:20;2.70;;;2.43;;
12356;SDS011;6243;51.244;6.774;2024-02-26T06:12:45;2.60;;;2.40;;
12356;SDS011;6243;51.244;6.774;2024-02-26T06:15:11;2.60;;;2.40;;
12356;SDS011;6243;51.244;6.774;2024-02-26T06:17:36;3.73;;;2.87;;
12356;SDS011;6243;51.244;6.774;2024-02-26T06:20:04;2.80;;;2.60;;
12356;SDS011;6243;51.244;6.774;2024-02-26T06:22:30;3.27;;;2.70;;
12356;SDS011;6243;51.244;6.774;2024-02-26T06:24:56;3.27;;;2.97;;
12356;SDS011;6243;51.244;6.774;2024-02-26T06:27:21;3.93;;;2.93;;
12356;SDS011;6243;51.244;6.774;2024-02-26T06:29:48;3.40;;;3.00;;
12356;SDS011;6243;51.244;6.774;2024-02-26T06:32:13;6.17;;;3.30;;
12356;SDS011;6243;51.244;6.774;2024-02-26T06:34:39;3.33;;;3.03;;
12356;SDS011;6243;51.244;6.774;2024-02-26T06:37:06;4.60;;;2.80;;
12356;SDS011;6243;51.244;6.774;2024-02-26T06:39:31;4.00;;;2.97;;
12356;SDS011;6243;51.244;6.774;2024-02-26T06:41:57;3.20;;;2.90;;
12356;SDS011;6243;51.244;6.774;2024-02-26T06:44:22;2.90;;;2.60;;
12356;SDS011;6243;51.244;6.774;2024-02-26T06:46:48;2.93;;;2.63;;
12356;SDS011;6243;51.244;6.774;2024-02-26T06:49:13;3.47;;;2.87;;
12356;SDS011;6243;51.244;6.774;2024-02-26T06:51:39;3.27;;;2.97;;
12356;SDS011;6243;51.244;6.774;2024-02-26T06:54:06;3.80;;;3.10;;
12356;SDS011;6243;51.244;6.774;2024-02-26T06:56:31;4.17;;;3.10;;
12356;SDS011;6243;51.244;6.774;2024-02-26T06:58:56;3.77;;;3.37;;
12356;SDS011;6243;51.244;6.774;2024-02-26T07:01:22;3.27;;;2.77;;
12356;SDS011;6243;51.244;6.774;2024-02-26T07:03:48;5.00;;;3.30;;
12356;SDS011;6243;51.244;6.774;2024-02-26T07:06:13;3.40;;;3.10;;
12356;SDS011;6243;51.244;6.774;2024-02-26T07:08:38;4.77;;;3.50;;
12356;SDS011;6243;51.244;6.774;2024-02-26T07:11:08;3.47;;;3.07;;
12356;SDS011;6243;51.244;6.774;2024-02-26T07:13:33;3.60;;;3.30;;
12356;SDS011;6243;51.244;6.774;2024-02-26T07:15:59;3.70;;;3.40;;
12356;SDS011;6243;51.244;6.774;2024-02-26T07:18:24;3.17;;;2.87;;
12356;SDS011;6243;51.244;6.774;2024-02-26T07:20:50;3.37;;;3.07;;
12356;SDS011;6243;51.244;6.774;2024-02-26T07:23:15;3.90;;;3.07;;
12356;SDS011;6243;51.244;6.774;2024-02-26T07:25:41;3.90;;;3.00;;
12356;SDS011;6243;51.244;6.774;2024-02-26T07:28:08;3.73;;;3.20;;
12356;SDS011;6243;51.244;6.774;2024-02-26T07:30:33;3.63;;;3.30;;
12356;SDS011;6243;51.244;6.774;2024-02-26T07:32:59;4.37;;;3.47;;
12356;SDS011;6243;51.244;6.774;2024-02-26T07:35:24;3.43;;;3.00;;
12356;SDS011;6243;51.244;6.774;2024-02-26T07:37:49;3.37;;;3.07;;
12356;SDS011;6243;51.244;6.774;2024-02-26T07:40:15;3.60;;;3.10;;
12356;SDS011;6243;51.244;6.774;2024-02-26T07:42:41;4.30;;;3.30;;
12356;SDS011;6243;51.244;6.774;2024-02-26T07:45:08;3.90;;;3.03;;
12356;SDS011;6243;51.244;6.774;2024-02-26T07:47:34;3.77;;;3.43;;
12356;SDS011;6243;51.244;6.774;2024-02-26T07:50:00;4.03;;;2.73;;
12356;SDS011;6243;51.244;6.774;2024-02-26T07:52:26;3.00;;;2.70;;
12356;SDS011;6243;51.244;6.774;2024-02-26T07:54:51;3.10;;;2.63;;
12356;SDS011;6243;51.244;6.774;2024-02-26T07:57:17;4.50;;;2.63;;
12356;SDS011;6243;51.244;6.774;2024-02-26T07:59:42;3.83;;;2.50;;
12356;SDS011;6243;51.244;6.774;2024-02-26T08:02:09;4.57;;;2.90;;
12356;SDS011;6243;51.244;6.774;2024-02-26T08:04:34;3.43;;;2.77;;
12356;SDS011;6243;51.244;6.774;2024-02-26T08:07:00;3.50;;;3.07;;
12356;SDS011;6243;51.244;6.774;2024-02-26T08:09:26;3.00;;;2.70;;
12356;SDS011;6243;51.244;6.774;2024-02-26T08:11:51;2.77;;;2.50;;
12356;SDS011;6243;51.244;6.774;2024-02-26T08:14:16;3.47;;;2.70;;
12356;SDS011;6243;51.244;6.774;2024-02-26T08:16:42;2.80;;;2.60;;
12356;SDS011;6243;51.244;6.774;2024-02-26T08:19:09;2.57;;;2.37;;
12356;SDS011;6243;51.244;6.774;2024-02-26T08:21:34;3.00;;;2.70;;
12356;SDS011;6243;51.244;6.774;2024-02-26T08:24:00;2.93;;;2.20;;
12356;SDS011;6243;51.244;6.774;2024-02-26T08:26:25;4.00;;;2.50;;
12356;SDS011;6243;51.244;6.774;2024-02-26T08:28:51;4.57;;;2.60;;
12356;SDS011;6243;51.244;6.774;2024-02-26T08:31:16;2.60;;;2.40;;
12356;SDS011;6243;51.244;6.774;2024-02-26T08:33:42;2.70;;;2.47;;
12356;SDS011;6243;51.244;6.774;2024-02-26T08:36:09;2.50;;;2.30;;
12356;SDS011;6243;51.244;6.774;2024-02-26T08:38:36;2.60;;;2.40;;
12356;SDS011;6243;51.244;6.774;2024-02-26T08:41:02;3.57;;;2.87;;
12356;SDS011;6243;51.244;6.774;2024-02-26T08:43:27;4.53;;;2.37;;
12356;SDS011;6243;51.244;6.774;2024-02-26T08:45:53;2.73;;;2.10;;
12356;SDS011;6243;51.244;6.774;2024-02-26T08:48:18;3.27;;;2.40;;
12356;SDS011;6243;51.244;6.774;2024-02-26T08:50:44;5.23;;;2.80;;
12356;SDS011;6243;51.244;6.774;2024-02-26T08:53:11;2.73;;;2.53;;
12356;SDS011;6243;51.244;6.774;2024-02-26T08:55:36;3.30;;;2.50;;
12356;SDS011;6243;51.244;6.774;2024-02-26T08:58:02;3.67;;;2.50;;
12356;SDS011;6243;51.244;6.774;2024-02-26T09:00:27;2.77;;;2.53;;
12356;SDS011;6243;51.244;6.774;2024-02-26T09:02:53;2.33;;;2.13;;
12356;SDS011;6243;51.244;6.774;2024-02-26T09:05:19;3.43;;;2.87;;
12356;SDS011;6243;51.244;6.774;2024-02-26T09:07:44;3.70;;;2.50;;
12356;SDS011;6243;51.244;6.774;2024-02-26T09:10:11;3.87;;;2.57;;
12356;SDS011;6243;51.244;6.774;2024-02-26T09:12:37;3.10;;;2.67;;
12356;SDS011;6243;51.244;6.774;2024-02-26T09:15:03;4.67;;;3.10;;
12356;SDS011;6243;51.244;6.774;2024-02-26T09:17:29;3.77;;;2.90;;
12356;SDS011;6243;51.244;6.774;2024-02-26T09:19:54;3.23;;;2.93;;
12356;SDS011;6243;51.244;6.774;2024-02-26T09:22:20;2.67;;;2.47;;
12356;SDS011;6243;51.244;6.774;2024-02-26T09:24:45;5.37;;;2.77;;
12356;SDS011;6243;51.244;6.774;2024-02-26T09:27:12;3.27;;;2.57;;
12356;SDS011;6243;51.244;6.774;2024-02-26T09:29:38;3.23;;;2.90;;
12356;SDS011;6243;51.244;6.774;2024-02-26T09:32:03;3.00;;;2.80;;
12356;SDS011;6243;51.244;6.774;2024-02-26T09:34:29;4.13;;;2.80;;
12356;SDS011;6243;51.244;6.774;2024-02-26T09:36:55;3.80;;;2.93;;
12356;SDS011;6243;51.244;6.774;2024-02-26T09:39:20;3.73;;;3.00;;
12356;SDS011;6243;51.244;6.774;2024-02-26T09:41:46;3.90;;;2.80;;
12356;SDS011;6243;51.244;6.774;2024-02-26T09:44:12;3.40;;;2.80;;
12356;SDS011;6243;51.244;6.774;2024-02-26T09:46:43;5.13;;;3.40;;
12356;SDS011;6243;51.244;6.774;2024-02-26T09:49:09;3.43;;;2.80;;
12356;SDS011;6243;51.244;6.774;2024-02-26T09:51:37;4.57;;;2.70;;
12356;SDS011;6243;51.244;6.774;2024-02-26T09:54:03;4.87;;;3.00;;
12356;SDS011;6243;51.244;6.774;2024-02-26T09:56:29;4.00;;;2.70;;
12356;SDS011;6243;51.244;6.774;2024-02-26T09:58:55;5.33;;;3.07;;
12356;SDS011;6243;51.244;6.774;2024-02-26T10:01:24;4.10;;;3.23;;
12356;SDS011;6243;51.244;6.774;2024-02-26T10:03:51;3.93;;;2.90;;
12356;SDS011;6243;51.244;6.774;2024-02-26T10:06:20;5.20;;;3.77;;
12356;SDS011;6243;51.244;6.774;2024-02-26T10:08:46;3.87;;;3.30;;
12356;SDS011;6243;51.244;6.774;2024-02-26T10:11:12;4.63;;;3.73;;
12356;SDS011;6243;51.244;6.774;2024-02-26T10:13:39;6.23;;;3.47;;
12356;SDS011;6243;51.244;6.774;2024-02-26T10:16:05;4.80;;;3.57;;
12356;SDS011;6243;51.244;6.774;2024-02-26T10:18:46;4.67;;;3.37;;
12356;SDS011;6243;51.244;6.774;2024-02-26T10:21:12;4.30;;;3.73;;
12356;SDS011;6243;51.244;6.774;2024-02-26T10:23:37;3.60;;;3.27;;
12356;SDS011;6243;51.244;6.774;2024-02-26T10:26:03;3.97;;;3.60;;
12356;SDS011;6243;51.244;6.774;2024-02-26T10:28:29;5.00;;;3.80;;
12356;SDS011;6243;51.244;6.774;2024-02-26T10:30:55;4.67;;;4.03;;
12356;SDS011;6243;51.244;6.774;2024-02-26T10:33:21;5.17;;;4.20;;
12356;SDS011;6243;51.244;6.774;2024-02-26T10:35:48;4.70;;;3.50;;
12356;SDS011;6243;51.244;6.774;2024-02-26T10:38:14;5.33;;;4.37;;
12356;SDS011;6243;51.244;6.774;2024-02-26T10:40:39;6.17;;;4.23;;
12356;SDS011;6243;51.244;6.774;2024-02-26T10:43:05;5.50;;;4.27;;
12356;SDS011;6243;51.244;6.774;2024-02-26T10:45:31;6.33;;;3.90;;
12356;SDS011;6243;51.244;6.774;2024-02-26T10:47:57;6.03;;;5.00;;
12356;SDS011;6243;51.244;6.774;2024-02-26T10:50:23;5.33;;;3.90;;
12356;SDS011;6243;51.244;6.774;2024-02-26T10:52:50;7.23;;;5.17;;
12356;SDS011;6243;51.244;6.774;2024-02-26T10:55:17;5.20;;;4.57;;
12356;SDS011;6243;51.244;6.774;2024-02-26T10:57:43;4.90;;;4.30;;
12356;SDS011;6243;51.244;6.774;2024-02-26T11:00:10;5.23;;;4.73;;
12356;SDS011;6243;51.244;6.774;2024-02-26T11:02:38;4.83;;;4.40;;
12356;SDS011;6243;51.244;6.774;2024-02-26T11:05:05;4.87;;;4.37;;
12356;SDS011;6243;51.244;6.774;2024-02-26T11:07:32;5.97;;;4.90;;
12356;SDS011;6243;51.244;6.774;2024-02-26T11:10:01;5.37;;;4.60;;
12356;SDS011;6243;51.244;6.774;2024-02-26T11:12:29;5.00;;;4.40;;
12356;SDS011;6243;51.244;6.774;2024-02-26T11:14:56;5.20;;;4.43;;
12356;SDS011;6243;51.244;6.774;2024-02-26T11:17:22;5.30;;;4.80;;
12356;SDS011;6243;51.244;6.774;2024-02-26T11:19:49;5.40;;;4.90;;
12356;SDS011;6243;51.244;6.774;2024-02-26T11:22:16;5.77;;;5.03;;
12356;SDS011;6243;51.244;6.774;2024-02-26T11:24:42;7.73;;;5.17;;
12356;SDS011;6243;51.244;6.774;2024-02-26T11:27:09;5.90;;;5.30;;
12356;SDS011;6243;51.244;6.774;2024-02-26T11:29:37;5.97;;;5.13;;
12356;SDS011;6243;51.244;6.774;2024-02-26T11:32:10;7.70;;;5.50;;
12356;SDS011;6243;51.244;6.774;2024-02-26T11:34:36;6.00;;;5.03;;
12356;SDS011;6243;51.244;6.774;2024-02-26T11:37:08;6.40;;;5.20;;
12356;SDS011;6243;51.244;6.774;2024-02-26T11:39:35;6.13;;;4.73;;
12356;SDS011;6243;51.244;6.774;2024-02-26T11:42:04;5.73;;;4.97;;
12356;SDS011;6243;51.244;6.774;2024-02-26T11:44:31;5.73;;;5.00;;
12356;SDS011;6243;51.244;6.774;2024-02-26T11:46:57;5.73;;;4.67;;
12356;SDS011;6243;51.244;6.774;2024-02-26T11:49:29;5.27;;;4.47;;
12356;SDS011;6243;51.244;6.774;2024-02-26T11:51:56;6.17;;;5.17;;
12356;SDS011;6243;51.244;6.774;2024-02-26T11:57:25;6.20;;;5.40;;
12356;SDS011;6243;51.244;6.774;2024-02-26T11:59:53;6.47;;;5.30;;
12356;SDS011;6243;51.244;6.774;2024-02-26T12:02:38;6.80;;;5.23;;
12356;SDS011;6243;51.244;6.774;2024-02-26T12:05:05;6.03;;;5.27;;
12356;SDS011;6243;51.244;6.774;2024-02-26T12:07:33;6.20;;;5.50;;
12356;SDS011;6243;51.244;6.774;2024-02-26T12:10:13;7.43;;;5.20;;
12356;SDS011;6243;51.244;6.774;2024-02-26T12:12:41;7.83;;;5.90;;
12356;SDS011;6243;51.244;6.774;2024-02-26T12:15:08;8.20;;;6.30;;
12356;SDS011;6243;51.244;6.774;2024-02-26T12:17:34;6.47;;;5.40;;
12356;SDS011;6243;51.244;6.774;2024-02-26T12:20:07;7.43;;;6.10;;
12356;SDS011;6243;51.244;6.774;2024-02-26T12:22:33;8.43;;;6.50;;
12356;SDS011;6243;51.244;6.774;2024-02-26T12:25:00;9.10;;;6.17;;
12356;SDS011;6243;51.244;6.774;2024-02-26T12:27:25;7.70;;;6.07;;
12356;SDS011;6243;51.244;6.774;2024-02-26T12:29:50;10.27;;;7.40;;
12356;SDS011;6243;51.244;6.774;2024-02-26T12:32:19;9.67;;;6.70;;
12356;SDS011;6243;51.244;6.774;2024-02-26T12:34:45;10.40;;;7.03;;
12356;SDS011;6243;51.244;6.774;2024-02-26T12:37:10;11.50;;;7.47;;
12356;SDS011;6243;51.244;6.774;2024-02-26T12:39:36;12.10;;;7.70;;
12356;SDS011;6243;51.244;6.774;2024-02-26T12:42:03;9.23;;;7.07;;
12356;SDS011;6243;51.244;6.774;2024-02-26T12:44:29;11.30;;;7.67;;
12356;SDS011;6243;51.244;6.774;2024-02-26T12:46:59;9.87;;;6.97;;
12356;SDS011;6243;51.244;6.774;2024-02-26T12:49:26;9.50;;;7.50;;
12356;SDS011;6243;51.244;6.774;2024-02-26T12:51:52;11.27;;;8.03;;
12356;SDS011;6243;51.244;6.774;2024-02-26T12:54:17;8.80;;;7.10;;
12356;SDS011;6243;51.244;6.774;2024-02-26T12:56:43;9.40;;;7.10;;
12356;SDS011;6243;51.244;6.774;2024-02-26T12:59:09;11.30;;;7.60;;
12356;SDS011;6243;51.244;6.774;2024-02-26T13:01:35;8.23;;;7.20;;
12356;SDS011;6243;51.244;6.774;2024-02-26T13:04:02;8.53;;;7.60;;
12356;SDS011;6243;51.244;6.774;2024-02-26T13:06:29;7.67;;;6.77;;
12356;SDS011;6243;51.244;6.774;2024-02-26T13:08:56;9.23;;;7.20;;
12356;SDS011;6243;51.244;6.774;2024-02-26T13:11:21;9.07;;;7.00;;
12356;SDS011;6243;51.244;6.774;2024-02-26T13:13:47;8.27;;;6.77;;
12356;SDS011;6243;51.244;6.774;2024-02-26T13:16:14;9.10;;;7.57;;
12356;SDS011;6243;51.244;6.774;2024-02-26T13:18:40;7.93;;;6.97;;
12356;SDS011;6243;51.244;6.774;2024-02-26T13:21:07;9.70;;;7.50;;
12356;SDS011;6243;51.244;6.774;2024-02-26T13:23:34;9.20;;;7.23;;
12356;SDS011;6243;51.244;6.774;2024-02-26T13:26:00;9.53;;;7.53;;
12356;SDS011;6243;51.244;6.774;2024-02-26T13:28:26;9.53;;;6.93;;
12356;SDS011;6243;51.244;6.774;2024-02-26T13:30:51;9.50;;;7.20;;
12356;SDS011;6243;51.244;6.774;2024-02-26T13:33:18;9.97;;;7.10;;
12356;SDS011;6243;51.244;6.774;2024-02-26T13:35:44;8.37;;;7.30;;
12356;SDS011;6243;51.244;6.774;2024-02-26T13:38:10;10.53;;;8.30;;
12356;SDS011;6243;51.244;6.774;2024-02-26T13:40:37;10.20;;;7.30;;
12356;SDS011;6243;51.244;6.774;2024-02-26T13:43:03;10.37;;;8.33;;
12356;SDS011;6243;51.244;6.774;2024-02-26T13:45:28;8.73;;;7.27;;
12356;SDS011;6243;51.244;6.774;2024-02-26T13:47:54;8.50;;;7.27;;
12356;SDS011;6243;51.244;6.774;2024-02-26T13:50:26;8.90;;;7.00;;
12356;SDS011;6243;51.244;6.774;2024-02-26T13:52:52;9.27;;;7.30;;
12356;SDS011;6243;51.244;6.774;2024-02-26T13:55:18;8.77;;;7.87;;
12356;SDS011;6243;51.244;6.774;2024-02-26T13:57:45;7.90;;;6.87;;
12356;SDS011;6243;51.244;6.774;2024-02-26T14:00:10;10.77;;;7.00;;
12356;SDS011;6243;51.244;6.774;2024-02-26T14:02:38;8.50;;;7.47;;
12356;SDS011;6243;51.244;6.774;2024-02-26T14:05:04;9.37;;;6.90;;
12356;SDS011;6243;51.244;6.774;2024-02-26T14:07:30;10.30;;;8.07;;
12356;SDS011;6243;51.244;6.774;2024-02-26T14:09:55;9.63;;;7.53;;
12356;SDS011;6243;51.244;6.774;2024-02-26T14:12:21;9.10;;;7.43;;
12356;SDS011;6243;51.244;6.774;2024-02-26T14:14:48;8.87;;;6.53;;
12356;SDS011;6243;51.244;6.774;2024-02-26T14:17:14;8.37;;;6.93;;
12356;SDS011;6243;51.244;6.774;2024-02-26T14:19:39;9.03;;;6.80;;
12356;SDS011;6243;51.244;6.774;2024-02-26T14:22:05;8.00;;;6.80;;
12356;SDS011;6243;51.244;6.774;2024-02-26T14:24:30;7.30;;;6.13;;
12356;SDS011;6243;51.244;6.774;2024-02-26T14:26:56;9.27;;;6.23;;
12356;SDS011;6243;51.244;6.774;2024-02-26T14:29:21;7.77;;;6.03;;
12356;SDS011;6243;51.244;6.774;2024-02-26T14:31:48;6.87;;;5.87;;
12356;SDS011;6243;51.244;6.774;2024-02-26T14:34:13;6.43;;;5.47;;
12356;SDS011;6243;51.244;6.774;2024-02-26T14:36:39;7.47;;;5.80;;
12356;SDS011;6243;51.244;6.774;2024-02-26T14:39:04;6.80;;;5.47;;
12356;SDS011;6243;51.244;6.774;2024-02-26T14:41:30;6.57;;;5.70;;
12356;SDS011;6243;51.244;6.774;2024-02-26T14:43:55;7.37;;;5.77;;
12356;SDS011;6243;51.244;6.774;2024-02-26T14:46:21;6.30;;;4.83;;
12356;SDS011;6243;51.244;6.774;2024-02-26T14:48:48;6.30;;;5.70;;
12356;SDS011;6243;51.244;6.774;2024-02-26T14:51:13;5.50;;;4.67;;
12356;SDS011;6243;51.244;6.774;2024-02-26T14:53:39;6.13;;;5.13;;
12356;SDS011;6243;51.244;6.774;2024-02-26T14:56:04;6.70;;;5.10;;